sensor_id;sensor_type;location;lat;lon;timestamp;pressure;altitude;pressure_sealevel;temperature
70123;BMP280;57489;37.404;24.920;2023-04-06T00:03:24;99997.47;;;20.62
70123;BMP280;57489;37.404;24.920;2023-04-06T00:08:25;99998.56;;;20.61
70123;BMP280;57489;37.404;24.920;2023-04-06T00:13:26;99986.22;;;20.56
70123;BMP280;57489;37.404;24.920;2023-04-06T00:18:27;99986.66;;;20.58
70123;BMP280;57489;37.404;24.920;2023-04-06T00:23:27;99981.78;;;20.60
70123;BMP280;57489;37.404;24.920;2023-04-06T00:28:27;99986.66;;;20.58
70123;BMP280;57489;37.404;24.920;2023-04-06T00:33:28;99976.00;;;20.58
70123;BMP280;57489;37.404;24.920;2023-04-06T00:38:28;99974.44;;;20.57
70123;BMP280;57489;37.404;24.920;2023-04-06T00:43:29;99962.34;;;20.60
70123;BMP280;57489;37.404;24.920;2023-04-06T00:48:29;99957.78;;;20.60
70123;BMP280;57489;37.404;24.920;2023-04-06T00:53:30;99944.00;;;20.58
70123;BMP280;57489;37.404;24.920;2023-04-06T00:58:30;99949.56;;;20.53
70123;BMP280;57489;37.404;24.920;2023-04-06T01:03:31;99938.09;;;20.53
70123;BMP280;57489;37.404;24.920;2023-04-06T01:08:31;99937.03;;;20.54
70123;BMP280;57489;37.404;24.920;2023-04-06T01:13:32;99936.25;;;20.53
70123;BMP280;57489;37.404;24.920;2023-04-06T01:18:32;99925.59;;;20.53
70123;BMP280;57489;37.404;24.920;2023-04-06T01:23:33;99917.13;;;20.51
70123;BMP280;57489;37.404;24.920;2023-04-06T01:28:33;99919.44;;;20.53
70123;BMP280;57489;37.404;24.920;2023-04-06T01:33:34;99923.09;;;20.48
70123;BMP280;57489;37.404;24.920;2023-04-06T01:38:34;99910.44;;;20.45
70123;BMP280;57489;37.404;24.920;2023-04-06T01:43:35;99910.88;;;20.47
70123;BMP280;57489;37.404;24.920;2023-04-06T01:48:35;99897.75;;;20.42
70123;BMP280;57489;37.404;24.920;2023-04-06T01:53:36;99906.22;;;20.44
70123;BMP280;57489;37.404;24.920;2023-04-06T01:58:36;99894.44;;;20.45
70123;BMP280;57489;37.404;24.920;2023-04-06T02:03:37;99893.41;;;20.37
70123;BMP280;57489;37.404;24.920;2023-04-06T02:08:37;99882.91;;;20.41
70123;BMP280;57489;37.404;24.920;2023-04-06T02:13:38;99866.47;;;20.39
70123;BMP280;57489;37.404;24.920;2023-04-06T02:18:38;99868.00;;;20.40
70123;BMP280;57489;37.404;24.920;2023-04-06T02:23:38;99866.47;;;20.39
70123;BMP280;57489;37.404;24.920;2023-04-06T02:28:39;99881.78;;;20.42
70123;BMP280;57489;37.404;24.920;2023-04-06T02:33:39;99878.66;;;20.40
70123;BMP280;57489;37.404;24.920;2023-04-06T02:38:40;99869.31;;;20.34
70123;BMP280;57489;37.404;24.920;2023-04-06T02:43:40;99864.34;;;20.32
70123;BMP280;57489;37.404;24.920;2023-04-06T02:48:41;99864.63;;;20.31
70123;BMP280;57489;37.404;24.920;2023-04-06T02:53:41;99867.75;;;20.33
70123;BMP280;57489;37.404;24.920;2023-04-06T02:58:42;99864.34;;;20.32
70123;BMP280;57489;37.404;24.920;2023-04-06T03:03:42;99878.94;;;20.26
70123;BMP280;57489;37.404;24.920;2023-04-06T03:08:42;99891.19;;;20.27
70123;BMP280;57489;37.404;24.920;2023-04-06T03:13:44;99884.16;;;20.23
70123;BMP280;57489;37.404;24.920;2023-04-06T03:18:44;99882.72;;;20.25
70123;BMP280;57489;37.404;24.920;2023-04-06T03:23:45;99887.28;;;20.25
70123;BMP280;57489;37.404;24.920;2023-04-06T03:28:45;99880.38;;;20.24
70123;BMP280;57489;37.404;24.920;2023-04-06T03:33:45;99871.97;;;20.22
70123;BMP280;57489;37.404;24.920;2023-04-06T03:38:46;99873.72;;;20.17
70123;BMP280;57489;37.404;24.920;2023-04-06T03:43:47;99868.84;;;20.20
70123;BMP280;57489;37.404;24.920;2023-04-06T03:48:48;99866.63;;;20.22
70123;BMP280;57489;37.404;24.920;2023-04-06T03:53:49;99855.06;;;20.17
70123;BMP280;57489;37.404;24.920;2023-04-06T03:58:49;99850.50;;;20.18
70123;BMP280;57489;37.404;24.920;2023-04-06T04:03:50;99862.06;;;20.22
70123;BMP280;57489;37.404;24.920;2023-04-06T04:08:50;99860.84;;;20.20
70123;BMP280;57489;37.404;24.920;2023-04-06T04:13:51;99858.41;;;20.14
70123;BMP280;57489;37.404;24.920;2023-04-06T04:18:51;99856.28;;;20.20
70123;BMP280;57489;37.404;24.920;2023-04-06T04:23:52;99847.75;;;20.14
70123;BMP280;57489;37.404;24.920;2023-04-06T04:28:52;99849.72;;;20.17
70123;BMP280;57489;37.404;24.920;2023-04-06T04:33:53;99855.06;;;20.17
70123;BMP280;57489;37.404;24.920;2023-04-06T04:38:53;99845.50;;;20.16
70123;BMP280;57489;37.404;24.920;2023-04-06T04:43:53;99852.50;;;20.21
70123;BMP280;57489;37.404;24.920;2023-04-06T04:48:54;99857.28;;;20.15
70123;BMP280;57489;37.404;24.920;2023-04-06T04:53:54;99858.31;;;20.23
70123;BMP280;57489;37.404;24.920;2023-04-06T04:58:55;99861.31;;;20.22
70123;BMP280;57489;37.404;24.920;2023-04-06T05:03:55;99858.75;;;20.25
70123;BMP280;57489;37.404;24.920;2023-04-06T05:08:56;99858.22;;;20.32
70123;BMP280;57489;37.404;24.920;2023-04-06T05:13:56;99851.13;;;20.36
70123;BMP280;57489;37.404;24.920;2023-04-06T05:18:57;99850.47;;;20.39
70123;BMP280;57489;37.404;24.920;2023-04-06T05:23:57;99842.78;;;20.37
70123;BMP280;57489;37.404;24.920;2023-04-06T05:28:58;99838.22;;;20.38
70123;BMP280;57489;37.404;24.920;2023-04-06T05:33:58;99836.94;;;20.44
70123;BMP280;57489;37.404;24.920;2023-04-06T05:38:59;99836.38;;;20.51
70123;BMP280;57489;37.404;24.920;2023-04-06T05:43:59;99833.06;;;20.54
70123;BMP280;57489;37.404;24.920;2023-04-06T05:49:00;99830.50;;;20.57
70123;BMP280;57489;37.404;24.920;2023-04-06T05:54:00;99839.06;;;20.63
70123;BMP280;57489;37.404;24.920;2023-04-06T05:59:01;99833.75;;;20.63
70123;BMP280;57489;37.404;24.920;2023-04-06T06:04:01;99842.97;;;20.65
70123;BMP280;57489;37.404;24.920;2023-04-06T06:09:02;99830.97;;;20.72
70123;BMP280;57489;37.404;24.920;2023-04-06T06:14:03;99843.19;;;20.73
70123;BMP280;57489;37.404;24.920;2023-04-06T06:19:04;99859.63;;;20.62
70123;BMP280;57489;37.404;24.920;2023-04-06T06:24:05;99880.81;;;20.59
70123;BMP280;57489;37.404;24.920;2023-04-06T06:29:06;99857.69;;;20.51
70123;BMP280;57489;37.404;24.920;2023-04-06T06:34:06;99869.16;;;20.51
70123;BMP280;57489;37.404;24.920;2023-04-06T06:39:07;99878.00;;;20.43
70123;BMP280;57489;37.404;24.920;2023-04-06T06:44:07;99901.41;;;20.37
70123;BMP280;57489;37.404;24.920;2023-04-06T06:49:08;99914.44;;;20.39
70123;BMP280;57489;37.404;24.920;2023-04-06T06:54:09;99931.50;;;20.38
70123;BMP280;57489;37.404;24.920;2023-04-06T06:59:09;99946.25;;;20.35
70123;BMP280;57489;37.404;24.920;2023-04-06T07:04:10;99936.09;;;20.29
70123;BMP280;57489;37.404;24.920;2023-04-06T07:09:10;99914.50;;;20.30
70123;BMP280;57489;37.404;24.920;2023-04-06T07:14:11;99878.66;;;20.40
70123;BMP280;57489;37.404;24.920;2023-04-06T07:19:11;99893.88;;;20.85
70123;BMP280;57489;37.404;24.920;2023-04-06T07:24:12;99882.78;;;21.19
70123;BMP280;57489;37.404;24.920;2023-04-06T07:29:12;99867.72;;;21.39
70123;BMP280;57489;37.404;24.920;2023-04-06T07:34:13;99868.38;;;21.48
70123;BMP280;57489;37.404;24.920;2023-04-06T07:39:14;99872.34;;;21.55
70123;BMP280;57489;37.404;24.920;2023-04-06T07:44:14;99872.63;;;21.90
70123;BMP280;57489;37.404;24.920;2023-04-06T07:49:15;99874.66;;;22.09
70123;BMP280;57489;37.404;24.920;2023-04-06T07:54:15;99852.34;;;22.33
70123;BMP280;57489;37.404;24.920;2023-04-06T07:59:15;99853.56;;;22.51
70123;BMP280;57489;37.404;24.920;2023-04-06T08:04:16;99852.09;;;22.69
70123;BMP280;57489;37.404;24.920;2023-04-06T08:09:16;99861.28;;;22.88
70123;BMP280;57489;37.404;24.920;2023-04-06T08:14:17;99860.09;;;23.01
70123;BMP280;57489;37.404;24.920;2023-04-06T08:19:17;99874.47;;;23.12
70123;BMP280;57489;37.404;24.920;2023-04-06T08:24:18;99862.81;;;23.20
70123;BMP280;57489;37.404;24.920;2023-04-06T08:29:18;99864.22;;;23.33
70123;BMP280;57489;37.404;24.920;2023-04-06T08:34:19;99884.59;;;23.38
70123;BMP280;57489;37.404;24.920;2023-04-06T08:39:19;99887.34;;;23.61
70123;BMP280;57489;37.404;24.920;2023-04-06T08:44:20;99890.13;;;23.64
70123;BMP280;57489;37.404;24.920;2023-04-06T08:49:21;99897.53;;;23.71
70123;BMP280;57489;37.404;24.920;2023-04-06T08:54:21;99891.31;;;23.67
70123;BMP280;57489;37.404;24.920;2023-04-06T08:59:24;99898.28;;;23.91
70123;BMP280;57489;37.404;24.920;2023-04-06T09:04:26;99886.34;;;23.88
70123;BMP280;57489;37.404;24.920;2023-04-06T09:09:26;99888.69;;;23.90
70123;BMP280;57489;37.404;24.920;2023-04-06T09:14:37;99888.00;;;23.93
70123;BMP280;57489;37.404;24.920;2023-04-06T09:19:47;99886.22;;;24.01
70123;BMP280;57489;37.404;24.920;2023-04-06T09:24:49;99891.41;;;24.13
70123;BMP280;57489;37.404;24.920;2023-04-06T09:29:50;99887.28;;;24.19
70123;BMP280;57489;37.404;24.920;2023-04-06T09:34:50;99882.47;;;24.28
70123;BMP280;57489;37.404;24.920;2023-04-06T09:40:04;99882.81;;;24.27
70123;BMP280;57489;37.404;24.920;2023-04-06T09:45:06;99865.50;;;24.20
70123;BMP280;57489;37.404;24.920;2023-04-06T09:50:07;99868.94;;;24.21
70123;BMP280;57489;37.404;24.920;2023-04-06T09:55:08;99861.28;;;24.19
70123;BMP280;57489;37.404;24.920;2023-04-06T10:00:09;99838.63;;;24.17
70123;BMP280;57489;37.404;24.920;2023-04-06T10:05:30;99841.66;;;24.15
70123;BMP280;57489;37.404;24.920;2023-04-06T10:10:33;99836.34;;;24.19
70123;BMP280;57489;37.404;24.920;2023-04-06T10:15:34;99844.91;;;24.28
70123;BMP280;57489;37.404;24.920;2023-04-06T10:25:54;99841.00;;;24.22
70123;BMP280;57489;37.404;24.920;2023-04-06T10:30:59;99842.59;;;24.27
70123;BMP280;57489;37.404;24.920;2023-04-06T10:36:13;99831.09;;;24.26
70123;BMP280;57489;37.404;24.920;2023-04-06T10:41:17;99828.38;;;24.22
70123;BMP280;57489;37.404;24.920;2023-04-06T10:46:25;99823.47;;;24.28
70123;BMP280;57489;37.404;24.920;2023-04-06T10:51:27;99832.91;;;24.18
70123;BMP280;57489;37.404;24.920;2023-04-06T10:56:29;99830.56;;;24.17
70123;BMP280;57489;37.404;24.920;2023-04-06T11:01:30;99834.81;;;24.18
70123;BMP280;57489;37.404;24.920;2023-04-06T11:06:31;99829.44;;;24.18
70123;BMP280;57489;37.404;24.920;2023-04-06T11:11:31;99831.84;;;24.23
70123;BMP280;57489;37.404;24.920;2023-04-06T11:16:33;99827.25;;;24.23
70123;BMP280;57489;37.404;24.920;2023-04-06T11:21:39;99815.63;;;24.16
70123;BMP280;57489;37.404;24.920;2023-04-06T11:26:47;99811.31;;;24.11
70123;BMP280;57489;37.404;24.920;2023-04-06T11:31:52;99810.56;;;24.11
70123;BMP280;57489;37.404;24.920;2023-04-06T11:37:00;99808.00;;;24.18
70123;BMP280;57489;37.404;24.920;2023-04-06T11:42:02;99797.19;;;24.14
70123;BMP280;57489;37.404;24.920;2023-04-06T11:47:03;99800.09;;;24.02
70123;BMP280;57489;37.404;24.920;2023-04-06T11:52:18;99799.72;;;24.04
70123;BMP280;57489;37.404;24.920;2023-04-06T11:57:19;99792.31;;;23.97
70123;BMP280;57489;37.404;24.920;2023-04-06T12:02:20;99786.91;;;23.93
70123;BMP280;57489;37.404;24.920;2023-04-06T12:07:20;99786.91;;;23.93
70123;BMP280;57489;37.404;24.920;2023-04-06T12:12:21;99780.25;;;23.84
70123;BMP280;57489;37.404;24.920;2023-04-06T12:17:22;99779.59;;;23.90
70123;BMP280;57489;37.404;24.920;2023-04-06T12:22:22;99769.75;;;23.75
70123;BMP280;57489;37.404;24.920;2023-04-06T12:27:23;99764.41;;;23.56
70123;BMP280;57489;37.404;24.920;2023-04-06T12:32:23;99756.22;;;23.68
70123;BMP280;57489;37.404;24.920;2023-04-06T12:37:24;99768.94;;;23.71
70123;BMP280;57489;37.404;24.920;2023-04-06T12:42:24;99754.28;;;23.65
70123;BMP280;57489;37.404;24.920;2023-04-06T12:47:26;99749.50;;;23.55
70123;BMP280;57489;37.404;24.920;2023-04-06T12:52:26;99743.59;;;23.46
70123;BMP280;57489;37.404;24.920;2023-04-06T12:57:26;99734.78;;;23.45
70123;BMP280;57489;37.404;24.920;2023-04-06T13:02:27;99738.94;;;23.43
70123;BMP280;57489;37.404;24.920;2023-04-06T13:07:27;99735.41;;;23.38
70123;BMP280;57489;37.404;24.920;2023-04-06T13:12:28;99723.31;;;23.25
70123;BMP280;57489;37.404;24.920;2023-04-06T13:17:29;99723.47;;;23.13
70123;BMP280;57489;37.404;24.920;2023-04-06T13:22:29;99710.38;;;23.08
70123;BMP280;57489;37.404;24.920;2023-04-06T13:27:30;99717.13;;;23.02
70123;BMP280;57489;37.404;24.920;2023-04-06T13:32:30;99714.59;;;22.90
70123;BMP280;57489;37.404;24.920;2023-04-06T13:37:31;99702.41;;;22.92
70123;BMP280;57489;37.404;24.920;2023-04-06T13:42:31;99707.53;;;22.81
70123;BMP280;57489;37.404;24.920;2023-04-06T13:47:32;99704.28;;;22.72
70123;BMP280;57489;37.404;24.920;2023-04-06T13:52:32;99694.44;;;22.76
70123;BMP280;57489;37.404;24.920;2023-04-06T13:57:33;99694.28;;;22.69
70123;BMP280;57489;37.404;24.920;2023-04-06T14:02:33;99692.56;;;22.61
70123;BMP280;57489;37.404;24.920;2023-04-06T14:07:34;99697.88;;;22.57
70123;BMP280;57489;37.404;24.920;2023-04-06T14:12:34;99698.22;;;22.56
70123;BMP280;57489;37.404;24.920;2023-04-06T14:17:34;99706.50;;;22.51
70123;BMP280;57489;37.404;24.920;2023-04-06T14:22:35;99694.53;;;22.45
70123;BMP280;57489;37.404;24.920;2023-04-06T14:27:35;99689.03;;;22.38
70123;BMP280;57489;37.404;24.920;2023-04-06T14:32:36;99684.28;;;22.31
70123;BMP280;57489;37.404;24.920;2023-04-06T14:37:36;99674.63;;;22.26
70123;BMP280;57489;37.404;24.920;2023-04-06T14:42:37;99682.50;;;22.19
70123;BMP280;57489;37.404;24.920;2023-04-06T14:47:37;99680.28;;;22.21
70123;BMP280;57489;37.404;24.920;2023-04-06T14:52:38;99677.00;;;22.12
70123;BMP280;57489;37.404;24.920;2023-04-06T14:57:38;99668.38;;;22.03
70123;BMP280;57489;37.404;24.920;2023-04-06T15:02:39;99665.69;;;22.03
70123;BMP280;57489;37.404;24.920;2023-04-06T15:07:39;99656.13;;;22.02
70123;BMP280;57489;37.404;24.920;2023-04-06T15:12:40;99661.06;;;22.00
70123;BMP280;57489;37.404;24.920;2023-04-06T15:17:40;99650.63;;;21.95
70123;BMP280;57489;37.404;24.920;2023-04-06T15:22:41;99641.50;;;21.96
70123;BMP280;57489;37.404;24.920;2023-04-06T15:27:41;99637.97;;;21.92
70123;BMP280;57489;37.404;24.920;2023-04-06T15:32:56;99628.38;;;21.91
70123;BMP280;57489;37.404;24.920;2023-04-06T15:37:57;99636.16;;;21.80
70123;BMP280;57489;37.404;24.920;2023-04-06T15:42:58;99634.28;;;21.81
70123;BMP280;57489;37.404;24.920;2023-04-06T15:47:58;99625.66;;;21.71
70123;BMP280;57489;37.404;24.920;2023-04-06T15:52:59;99631.84;;;21.75
70123;BMP280;57489;37.404;24.920;2023-04-06T15:57:59;99615.66;;;21.68
70123;BMP280;57489;37.404;24.920;2023-04-06T16:03:00;99611.28;;;21.60
70123;BMP280;57489;37.404;24.920;2023-04-06T16:08:00;99611.34;;;21.48
70123;BMP280;57489;37.404;24.920;2023-04-06T16:13:00;99613.47;;;21.42
70123;BMP280;57489;37.404;24.920;2023-04-06T16:18:01;99611.19;;;21.41
70123;BMP280;57489;37.404;24.920;2023-04-06T16:23:01;99610.31;;;21.37
70123;BMP280;57489;37.404;24.920;2023-04-06T16:28:02;99615.66;;;21.37
70123;BMP280;57489;37.404;24.920;2023-04-06T16:33:02;99622.34;;;21.46
70123;BMP280;57489;37.404;24.920;2023-04-06T16:38:04;99630.41;;;21.78
70123;BMP280;57489;37.404;24.920;2023-04-06T16:43:04;99642.19;;;21.93
70123;BMP280;57489;37.404;24.920;2023-04-06T16:48:05;99641.16;;;21.97
70123;BMP280;57489;37.404;24.920;2023-04-06T16:53:05;99653.56;;;22.06
70123;BMP280;57489;37.404;24.920;2023-04-06T16:58:06;99650.28;;;22.12
70123;BMP280;57489;37.404;24.920;2023-04-06T17:03:06;99652.94;;;22.12
70123;BMP280;57489;37.404;24.920;2023-04-06T17:08:07;99664.91;;;22.18
70123;BMP280;57489;37.404;24.920;2023-04-06T17:13:07;99678.69;;;22.20
70123;BMP280;57489;37.404;24.920;2023-04-06T17:18:09;99696.31;;;22.21
70123;BMP280;57489;37.404;24.920;2023-04-06T17:23:09;99684.28;;;22.31
70123;BMP280;57489;37.404;24.920;2023-04-06T17:28:10;99700.25;;;22.27
70123;BMP280;57489;37.404;24.920;2023-04-06T17:33:10;99713.53;;;22.08
70123;BMP280;57489;37.404;24.920;2023-04-06T17:38:11;99728.09;;;22.11
70123;BMP280;57489;37.404;24.920;2023-04-06T17:43:11;99720.25;;;22.02
70123;BMP280;57489;37.404;24.920;2023-04-06T17:48:12;99746.78;;;21.95
70123;BMP280;57489;37.404;24.920;2023-04-06T17:53:12;99747.63;;;21.67
70123;BMP280;57489;37.404;24.920;2023-04-06T17:58:13;99743.88;;;21.56
70123;BMP280;57489;37.404;24.920;2023-04-06T18:03:13;99756.16;;;21.45
70123;BMP280;57489;37.404;24.920;2023-04-06T18:08:13;99755.09;;;21.34
70123;BMP280;57489;37.404;24.920;2023-04-06T18:13:14;99780.22;;;21.33
70123;BMP280;57489;37.404;24.920;2023-04-06T18:18:14;99792.44;;;21.34
70123;BMP280;57489;37.404;24.920;2023-04-06T18:23:15;99811.41;;;21.16
70123;BMP280;57489;37.404;24.920;2023-04-06T18:28:18;99808.84;;;21.20
70123;BMP280;57489;37.404;24.920;2023-04-06T18:33:19;99816.75;;;21.16
70123;BMP280;57489;37.404;24.920;2023-04-06T18:38:19;99827.06;;;21.18
70123;BMP280;57489;37.404;24.920;2023-04-06T18:43:20;99826.91;;;21.39
70123;BMP280;57489;37.404;24.920;2023-04-06T18:48:20;99833.66;;;21.61
70123;BMP280;57489;37.404;24.920;2023-04-06T18:53:21;99833.38;;;21.66
70123;BMP280;57489;37.404;24.920;2023-04-06T18:58:22;99833.53;;;21.57
70123;BMP280;57489;37.404;24.920;2023-04-06T19:03:23;99847.69;;;21.58
70123;BMP280;57489;37.404;24.920;2023-04-06T19:08:23;99841.97;;;21.59
70123;BMP280;57489;37.404;24.920;2023-04-06T19:13:24;99841.13;;;21.55
70123;BMP280;57489;37.404;24.920;2023-04-06T19:18:24;99847.91;;;21.53
70123;BMP280;57489;37.404;24.920;2023-04-06T19:23:25;99848.25;;;21.51
70123;BMP280;57489;37.404;24.920;2023-04-06T19:28:25;99845.56;;;21.51
70123;BMP280;57489;37.404;24.920;2023-04-06T19:33:26;99850.91;;;21.51
70123;BMP280;57489;37.404;24.920;2023-04-06T19:38:26;99846.47;;;21.55
70123;BMP280;57489;37.404;24.920;2023-04-06T19:43:27;99848.44;;;21.58
70123;BMP280;57489;37.404;24.920;2023-04-06T19:48:27;99859.66;;;21.64
70123;BMP280;57489;37.404;24.920;2023-04-06T19:53:28;99859.66;;;21.64
70123;BMP280;57489;37.404;24.920;2023-04-06T19:58:28;99863.34;;;21.59
70123;BMP280;57489;37.404;24.920;2023-04-06T20:03:29;99870.50;;;21.55
70123;BMP280;57489;37.404;24.920;2023-04-06T20:08:29;99884.41;;;21.48
70123;BMP280;57489;37.404;24.920;2023-04-06T20:13:30;99890.81;;;21.60
70123;BMP280;57489;37.404;24.920;2023-04-06T20:18:31;99893.41;;;21.44
70123;BMP280;57489;37.404;24.920;2023-04-06T20:23:31;99902.72;;;21.50
70123;BMP280;57489;37.404;24.920;2023-04-06T20:28:32;99887.59;;;21.54
70123;BMP280;57489;37.404;24.920;2023-04-06T20:33:35;99894.53;;;21.55
70123;BMP280;57489;37.404;24.920;2023-04-06T20:38:36;99902.97;;;21.57
70123;BMP280;57489;37.404;24.920;2023-04-06T20:43:36;99899.84;;;21.55
70123;BMP280;57489;37.404;24.920;2023-04-06T20:48:37;99902.97;;;21.57
70123;BMP280;57489;37.404;24.920;2023-04-06T20:53:37;99908.28;;;21.57
70123;BMP280;57489;37.404;24.920;2023-04-06T20:58:38;99915.88;;;21.55
70123;BMP280;57489;37.404;24.920;2023-04-06T21:03:39;99913.00;;;21.48
70123;BMP280;57489;37.404;24.920;2023-04-06T21:08:39;99916.34;;;21.33
70123;BMP280;57489;37.404;24.920;2023-04-06T21:13:40;99919.22;;;21.28
70123;BMP280;57489;37.404;24.920;2023-04-06T21:18:40;99920.56;;;21.34
70123;BMP280;57489;37.404;24.920;2023-04-06T21:23:40;99925.44;;;21.44
70123;BMP280;57489;37.404;24.920;2023-04-06T21:28:41;99910.31;;;21.48
70123;BMP280;57489;37.404;24.920;2023-04-06T21:33:41;99910.00;;;21.37
70123;BMP280;57489;37.404;24.920;2023-04-06T21:38:42;99901.75;;;21.30
70123;BMP280;57489;37.404;24.920;2023-04-06T21:43:42;99913.66;;;21.33
70123;BMP280;57489;37.404;24.920;2023-04-06T21:48:43;99912.31;;;21.39
70123;BMP280;57489;37.404;24.920;2023-04-06T21:53:43;99914.78;;;21.44
70123;BMP280;57489;37.404;24.920;2023-04-06T21:58:44;99916.56;;;21.28
70123;BMP280;57489;37.404;24.920;2023-04-06T22:03:45;99915.78;;;21.15
70123;BMP280;57489;37.404;24.920;2023-04-06T22:08:46;99921.88;;;21.03
70123;BMP280;57489;37.404;24.920;2023-04-06T22:13:46;99925.44;;;20.83
70123;BMP280;57489;37.404;24.920;2023-04-06T22:18:47;99921.50;;;20.68
70123;BMP280;57489;37.404;24.920;2023-04-06T22:23:47;99925.25;;;20.67
70123;BMP280;57489;37.404;24.920;2023-04-06T22:28:48;99939.47;;;20.59
70123;BMP280;57489;37.404;24.920;2023-04-06T22:33:48;99929.91;;;20.58
70123;BMP280;57489;37.404;24.920;2023-04-06T22:38:48;99931.03;;;20.57
70123;BMP280;57489;37.404;24.920;2023-04-06T22:43:49;99941.34;;;20.58
70123;BMP280;57489;37.404;24.920;2023-04-06T22:48:51;99948.22;;;20.59
70123;BMP280;57489;37.404;24.920;2023-04-06T22:53:51;99953.31;;;20.52
70123;BMP280;57489;37.404;24.920;2023-04-06T22:58:52;99945.03;;;20.54
70123;BMP280;57489;37.404;24.920;2023-04-06T23:03:52;99947.09;;;20.48
70123;BMP280;57489;37.404;24.920;2023-04-06T23:08:52;99953.84;;;20.46
70123;BMP280;57489;37.404;24.920;2023-04-06T23:13:53;99951.72;;;20.39
70123;BMP280;57489;37.404;24.920;2023-04-06T23:18:53;99957.06;;;20.39
70123;BMP280;57489;37.404;24.920;2023-04-06T23:23:54;99959.28;;;20.37
70123;BMP280;57489;37.404;24.920;2023-04-06T23:28:54;99956.69;;;20.28
70123;BMP280;57489;37.404;24.920;2023-04-06T23:33:55;99955.22;;;20.31
70123;BMP280;57489;37.404;24.920;2023-04-06T23:38:55;99957.00;;;20.27
70123;BMP280;57489;37.404;24.920;2023-04-06T23:43:56;99955.75;;;20.24
70123;BMP280;57489;37.404;24.920;2023-04-06T23:48:56;99956.28;;;20.17
70123;BMP280;57489;37.404;24.920;2023-04-06T23:53:56;99962.41;;;20.18
70123;BMP280;57489;37.404;24.920;2023-04-06T23:58:57;99953.19;;;20.15
